Time;durP1;ratioP1;P1;durP2;ratioP2;P2;SDS_P1;SDS_P2;PMS_P1;PMS_P2;Temp;Humidity;BMP_temperature;BMP_pressure;BME280_temperature;BME280_humidity;BME280_pressure;Samples;Min_cycle;Max_cycle;Signal;HPM_P1;HPM_P2
2021/05/08 00:01:53;;;;;;;;;;;;;;;21.37;68.29;101322.00;5151898;27;1985;-68
2021/05/08 00:04:37;;;;;;;;;;;;;;;21.31;68.04;101315.22;5133800;27;651;-68
2021/05/08 00:07:22;;;;;;;;;;;;;;;21.36;68.45;101317.63;5152093;27;634;-68
2021/05/08 00:10:13;;;;;;;;;;;;;;;21.35;68.48;101316.78;5151879;27;1369;-68
2021/05/08 00:12:58;;;;;;;;;;;;;;;21.35;68.41;101315.91;5135856;27;647;-68
2021/05/08 00:15:43;;;;;;;;;;;;;;;21.35;68.53;101305.31;5151323;27;1275;-68
2021/05/08 00:18:27;;;;;;;;;;;;;;;21.35;68.24;101310.63;5151074;27;627;-68
2021/05/08 00:21:12;;;;;;;;;;;;;;;21.33;68.35;101304.56;5151876;27;1905;-68
2021/05/08 00:23:57;;;;;;;;;;;;;;;21.33;68.42;101308.06;5151501;27;694;-69
2021/05/08 00:26:42;;;;;;;;;;;;;;;21.33;68.57;101301.91;5151334;27;1541;-68
2021/05/08 00:29:27;;;;;;;;;;;;;;;21.32;68.36;101303.69;5151272;27;725;-69
2021/05/08 00:32:11;;;;;;;;;;;;;;;21.32;68.67;101300.19;5151119;27;710;-68
2021/05/08 00:34:56;;;;;;;;;;;;;;;21.32;68.39;101300.19;5134941;27;1298;-68
2021/05/08 00:37:43;;;;;;;;;;;;;;;21.31;68.30;101294.03;5151518;27;646;-68
2021/05/08 00:40:27;;;;;;;;;;;;;;;21.31;68.68;101291.38;5151049;27;1976;-68
2021/05/08 00:43:13;;;;;;;;;;;;;;;21.31;68.61;101290.56;5150568;27;627;-68
2021/05/08 00:45:58;;;;;;;;;;;;;;;21.30;68.37;101287.06;5151105;27;1275;-68
2021/05/08 00:48:43;;;;;;;;;;;;;;;21.29;68.49;101281.81;5128929;27;1496;-68
2021/05/08 00:51:28;;;;;;;;;;;;;;;21.30;68.83;101287.06;5130386;27;1274;-68
2021/05/08 00:54:12;;;;;;;;;;;;;;;21.30;68.61;101288.84;5130068;27;709;-69
2021/05/08 00:56:57;;;;;;;;;;;;;;;21.30;68.77;101287.06;5129614;27;1384;-68
2021/05/08 00:59:42;;;;;;;;;;;;;;;21.31;68.63;101285.25;5130043;27;1235;-68
2021/05/08 01:02:26;;;;;;;;;;;;;;;21.30;68.56;101286.19;5130253;27;1933;-67
2021/05/08 01:05:13;;;;;;;;;;;;;;;21.30;68.65;101280.91;5130694;27;1279;-68
2021/05/08 01:07:58;;;;;;;;;;;;;;;21.29;68.80;101273.88;5130347;27;663;-68
2021/05/08 01:10:42;;;;;;;;;;;;;;;21.29;68.54;101277.38;5130126;27;1288;-68
2021/05/08 01:13:27;;;;;;;;;;;;;;;21.30;68.75;101270.28;5130462;27;647;-68
2021/05/08 01:16:12;;;;;;;;;;;;;;;21.29;68.52;101265.94;5130467;27;1342;-67
2021/05/08 01:18:57;;;;;;;;;;;;;;;21.29;68.66;101266.78;5130067;28;678;-68
2021/05/08 01:21:42;;;;;;;;;;;;;;;21.28;68.45;101261.59;5130232;28;1910;-68
2021/05/08 01:24:27;;;;;;;;;;;;;;;21.28;68.72;101261.59;5129105;28;623;-68
2021/05/08 01:27:12;;;;;;;;;;;;;;;21.28;68.86;101261.59;5129906;28;663;-69
2021/05/08 01:29:57;;;;;;;;;;;;;;;21.28;68.75;101261.59;5132317;27;1279;-68
2021/05/08 01:32:41;;;;;;;;;;;;;;;21.28;68.52;101256.28;5133992;27;690;-68
2021/05/08 01:35:28;;;;;;;;;;;;;;;21.28;68.63;101251.81;5132684;27;1279;-69
2021/05/08 01:38:12;;;;;;;;;;;;;;;21.28;68.81;101251.00;5133623;27;670;-68
2021/05/08 01:41:06;;;;;;;;;;;;;;;21.27;68.82;101249.28;5133721;27;1898;-68
2021/05/08 01:43:51;;;;;;;;;;;;;;;21.27;68.45;101243.97;5133732;27;730;-68
2021/05/08 01:46:36;;;;;;;;;;;;;;;21.28;68.67;101245.69;5134161;27;1383;-68
2021/05/08 01:49:21;;;;;;;;;;;;;;;21.27;68.84;101238.69;5152562;27;1483;-68
2021/05/08 01:52:05;;;;;;;;;;;;;;;21.27;68.47;101236.88;5154400;27;706;-68
2021/05/08 01:54:50;;;;;;;;;;;;;;;21.26;68.68;101240.47;5154132;27;1275;-68
2021/05/08 01:57:41;;;;;;;;;;;;;;;21.27;68.65;101236.03;5154905;27;581;-68
2021/05/08 02:00:29;;;;;;;;;;;;;;;21.27;68.79;101236.03;5154914;27;1975;-68
2021/05/08 02:03:14;;;;;;;;;;;;;;;21.27;68.54;101236.03;5153133;27;662;-69
2021/05/08 02:05:59;;;;;;;;;;;;;;;21.27;68.83;101244.84;5154518;27;1318;-69
2021/05/08 02:08:44;;;;;;;;;;;;;;;21.25;68.65;101234.31;5154547;27;686;-68
2021/05/08 02:11:29;;;;;;;;;;;;;;;21.25;68.92;101233.47;5138170;27;1267;-68
2021/05/08 02:14:13;;;;;;;;;;;;;;;21.26;68.85;101235.16;5154427;27;614;-69
2021/05/08 02:16:58;;;;;;;;;;;;;;;21.25;68.49;101234.31;5154205;27;1378;-68
2021/05/08 02:19:42;;;;;;;;;;;;;;;21.24;68.85;101224.69;5138398;27;1338;-69
2021/05/08 02:22:27;;;;;;;;;;;;;;;21.24;68.50;101229.13;5154187;27;1894;-68
2021/05/08 02:25:12;;;;;;;;;;;;;;;21.24;68.72;101223.81;5153714;27;1271;-68
2021/05/08 02:27:57;;;;;;;;;;;;;;;21.23;68.78;101222.97;5153961;27;662;-68
2021/05/08 02:30:42;;;;;;;;;;;;;;;21.23;68.72;101225.63;5153589;27;1248;-67
2021/05/08 02:33:27;;;;;;;;;;;;;;;21.25;68.46;101220.22;5138269;27;627;-68
2021/05/08 02:36:13;;;;;;;;;;;;;;;21.23;68.46;101215.03;5137763;27;1294;-68
2021/05/08 02:38:57;;;;;;;;;;;;;;;21.23;68.64;101217.66;5153505;27;576;-68
2021/05/08 02:41:42;;;;;;;;;;;;;;;21.23;68.38;101216.81;5152515;27;1901;-67
2021/05/08 02:44:26;;;;;;;;;;;;;;;21.23;68.50;101211.50;5153564;27;706;-68
2021/05/08 02:47:18;;;;;;;;;;;;;;;21.22;68.48;101205.34;5153048;27;1253;-68
2021/05/08 02:50:04;;;;;;;;;;;;;;;21.23;68.61;101211.50;5152851;27;1291;-69
2021/05/08 02:52:49;;;;;;;;;;;;;;;21.24;68.38;101210.59;5152692;27;702;-67
2021/05/08 02:55:34;;;;;;;;;;;;;;;21.23;68.51;101212.38;5152284;27;1263;-66
2021/05/08 02:58:21;;;;;;;;;;;;;;;21.21;68.51;101203.66;5136140;27;596;-67
2021/05/08 03:01:06;;;;;;;;;;;;;;;21.22;68.52;101205.34;5152671;27;1960;-69
2021/05/08 03:03:50;;;;;;;;;;;;;;;21.21;68.39;101208.97;5152934;27;639;-69
2021/05/08 03:06:35;;;;;;;;;;;;;;;21.20;68.58;101201.97;5136511;27;1299;-67
2021/05/08 03:09:20;;;;;;;;;;;;;;;21.20;68.55;101199.31;5153044;27;623;-67
2021/05/08 03:12:05;;;;;;;;;;;;;;;21.21;68.63;101198.38;5152972;27;706;-68
2021/05/08 03:14:50;;;;;;;;;;;;;;;21.20;68.57;101204.59;5137271;27;1378;-67
2021/05/08 03:17:35;;;;;;;;;;;;;;;21.20;68.45;101199.31;5152746;27;623;-68
2021/05/08 03:20:22;;;;;;;;;;;;;;;21.19;68.64;101194.94;5153145;27;1334;-69
2021/05/08 03:23:08;;;;;;;;;;;;;;;21.19;68.66;101194.94;5152756;27;698;-67
2021/05/08 03:25:52;;;;;;;;;;;;;;;21.19;68.54;101194.94;5136938;27;1374;-68
2021/05/08 03:28:37;;;;;;;;;;;;;;;21.18;68.57;101190.59;5152626;27;713;-68
2021/05/08 03:31:22;;;;;;;;;;;;;;;21.18;68.61;101182.66;5152615;27;1430;-68
2021/05/08 03:34:07;;;;;;;;;;;;;;;21.17;68.42;101188.91;5136609;27;729;-68
2021/05/08 03:36:52;;;;;;;;;;;;;;;21.17;68.58;101183.59;5152606;27;1259;-68
2021/05/08 03:39:36;;;;;;;;;;;;;;;21.17;68.58;101185.38;5152556;27;651;-68
2021/05/08 03:42:21;;;;;;;;;;;;;;;21.18;68.44;101182.66;5151946;27;1921;-66
2021/05/08 03:45:06;;;;;;;;;;;;;;;21.18;68.86;101176.50;5152035;27;1298;-68
2021/05/08 03:47:51;;;;;;;;;;;;;;;21.16;68.64;101168.63;5152263;27;1236;-67
2021/05/08 03:50:36;;;;;;;;;;;;;;;21.16;68.67;101163.34;5152253;27;1283;-68
2021/05/08 03:53:22;;;;;;;;;;;;;;;21.17;68.50;101166.84;5151855;27;666;-67
2021/05/08 03:56:07;;;;;;;;;;;;;;;21.16;68.78;101165.97;5151810;27;1369;-68
2021/05/08 03:58:52;;;;;;;;;;;;;;;21.15;68.77;101161.66;5151674;27;681;-70
2021/05/08 04:01:37;;;;;;;;;;;;;;;21.15;68.47;101156.34;5152005;27;1906;-68
2021/05/08 04:04:22;;;;;;;;;;;;;;;21.15;68.71;101161.66;5152001;27;627;-68
2021/05/08 04:07:07;;;;;;;;;;;;;;;21.15;68.36;101159.00;5151608;27;599;-68
2021/05/08 04:09:51;;;;;;;;;;;;;;;21.14;68.41;101159.94;5151528;27;1282;-68
2021/05/08 04:12:36;;;;;;;;;;;;;;;21.14;68.83;101154.63;5151524;27;734;-66
2021/05/08 04:15:21;;;;;;;;;;;;;;;21.14;68.59;101156.44;5151692;27;1291;-69
2021/05/08 04:18:06;;;;;;;;;;;;;;;21.13;68.30;101158.22;5151840;27;678;-68
2021/05/08 04:20:51;;;;;;;;;;;;;;;21.13;68.31;101155.56;5151271;27;1906;-68
2021/05/08 04:23:37;;;;;;;;;;;;;;;21.14;68.33;101154.63;5151419;27;683;-68
2021/05/08 04:26:21;;;;;;;;;;;;;;;21.14;68.40;101151.13;5151318;27;1405;-69
2021/05/08 04:29:06;;;;;;;;;;;;;;;21.14;68.36;101146.69;5135615;27;619;-68
2021/05/08 04:31:51;;;;;;;;;;;;;;;21.13;68.26;101136.19;5151799;27;1283;-68
2021/05/08 04:34:36;;;;;;;;;;;;;;;21.12;68.43;101142.44;5151386;27;694;-69
2021/05/08 04:37:22;;;;;;;;;;;;;;;21.12;68.42;101138.00;5151764;27;619;-68
2021/05/08 04:40:08;;;;;;;;;;;;;;;21.12;68.26;101138.00;5151097;27;1259;-68
2021/05/08 04:42:52;;;;;;;;;;;;;;;21.12;68.40;101140.66;5151178;27;1926;-69
2021/05/08 04:45:37;;;;;;;;;;;;;;;21.12;68.48;101140.66;5150936;27;1375;-69
2021/05/08 04:48:22;;;;;;;;;;;;;;;21.11;68.24;101132.78;5150777;27;1392;-68
2021/05/08 04:51:07;;;;;;;;;;;;;;;21.10;68.44;101145.16;5151198;27;1303;-69
2021/05/08 04:53:52;;;;;;;;;;;;;;;21.10;68.18;101144.31;5151421;27;706;-69
2021/05/08 04:56:37;;;;;;;;;;;;;;;21.10;68.46;101147.81;5135273;27;1389;-68
2021/05/08 04:59:22;;;;;;;;;;;;;;;21.11;68.49;101148.66;5149409;27;1621;-67
2021/05/08 05:02:06;;;;;;;;;;;;;;;21.10;68.18;101153.09;5121168;27;1906;-68
2021/05/08 05:04:51;;;;;;;;;;;;;;;21.11;68.17;101153.97;5129620;27;1350;-68
2021/05/08 05:07:36;;;;;;;;;;;;;;;21.09;68.36;101151.44;5132566;27;772;-68
2021/05/08 05:10:21;;;;;;;;;;;;;;;21.11;68.36;101149.53;5150857;27;1396;-68
2021/05/08 05:13:06;;;;;;;;;;;;;;;21.08;68.20;101152.34;5150919;27;631;-68
2021/05/08 05:15:51;;;;;;;;;;;;;;;21.05;68.31;101152.50;5150246;27;1434;-68
2021/05/08 05:18:35;;;;;;;;;;;;;;;21.09;67.98;101154.06;5151344;27;641;-68
2021/05/08 05:21:20;;;;;;;;;;;;;;;21.09;68.20;101158.50;5116562;28;1976;-68
2021/05/08 05:24:05;;;;;;;;;;;;;;;21.09;68.25;101167.31;5130100;28;647;-69
2021/05/08 05:26:51;;;;;;;;;;;;;;;21.09;68.09;101166.47;5130440;28;1237;-68
2021/05/08 05:29:35;;;;;;;;;;;;;;;21.08;68.37;101165.59;5130098;28;666;-69
2021/05/08 05:32:20;;;;;;;;;;;;;;;21.08;68.17;101167.38;5130382;28;691;-68
2021/05/08 05:35:05;;;;;;;;;;;;;;;21.08;68.29;101173.56;5129916;28;1279;-68
2021/05/08 05:37:57;;;;;;;;;;;;;;;21.08;68.28;101173.56;5140401;27;659;-68
2021/05/08 05:40:41;;;;;;;;;;;;;;;21.08;68.31;101176.19;5150516;27;1906;-68
2021/05/08 05:43:26;;;;;;;;;;;;;;;21.07;68.28;101174.44;5149826;27;654;-68
2021/05/08 05:46:10;;;;;;;;;;;;;;;21.08;68.38;101177.97;5150631;27;1306;-68
2021/05/08 05:48:55;;;;;;;;;;;;;;;21.09;68.35;101177.91;5150580;27;1605;-69
2021/05/08 05:51:40;;;;;;;;;;;;;;;21.07;68.15;101171.81;5134751;27;1291;-69
2021/05/08 05:54:24;;;;;;;;;;;;;;;21.08;68.26;101181.50;5134194;27;643;-69
2021/05/08 05:57:09;;;;;;;;;;;;;;;21.07;68.50;101174.44;5150203;27;714;-69
2021/05/08 05:59:54;;;;;;;;;;;;;;;21.08;68.30;101170.00;5150185;27;1377;-69
2021/05/08 06:02:39;;;;;;;;;;;;;;;21.07;68.53;101173.59;5149898;27;1971;-68
2021/05/08 06:05:24;;;;;;;;;;;;;;;21.07;68.65;101163.84;5150225;27;1279;-68
2021/05/08 06:08:12;;;;;;;;;;;;;;;21.08;68.64;101170.00;5150640;27;662;-69
2021/05/08 06:10:57;;;;;;;;;;;;;;;21.08;68.72;101165.59;5150665;27;1286;-68
2021/05/08 06:13:41;;;;;;;;;;;;;;;21.06;68.54;101167.47;5150589;27;650;-68
2021/05/08 06:16:29;;;;;;;;;;;;;;;21.07;68.29;101163.00;5152331;27;1281;-69
2021/05/08 06:19:14;;;;;;;;;;;;;;;21.06;68.48;101162.19;5154869;27;600;-68
2021/05/08 06:21:59;;;;;;;;;;;;;;;21.07;69.05;101171.81;5153946;27;1914;-68
2021/05/08 06:24:44;;;;;;;;;;;;;;;21.07;68.88;101166.50;5144570;27;1485;-67
2021/05/08 06:27:28;;;;;;;;;;;;;;;21.07;68.79;101165.66;5131956;27;635;-68
2021/05/08 06:30:15;;;;;;;;;;;;;;;21.12;68.78;101172.44;5131894;27;1278;-68
2021/05/08 06:32:59;;;;;;;;;;;;;;;21.09;68.53;101172.63;5131564;27;670;-67
2021/05/08 06:35:44;;;;;;;;;;;;;;;21.07;68.64;101174.44;5131841;27;1372;-68
2021/05/08 06:38:29;;;;;;;;;;;;;;;21.06;68.77;101178.06;5131508;27;623;-68
2021/05/08 06:41:14;;;;;;;;;;;;;;;21.06;68.60;101185.16;5131322;27;1926;-67
2021/05/08 06:43:59;;;;;;;;;;;;;;;21.05;68.58;101186.94;5132342;27;702;-68
2021/05/08 06:46:44;;;;;;;;;;;;;;;21.05;68.67;101186.09;5132195;27;1283;-67
2021/05/08 06:49:29;;;;;;;;;;;;;;;21.05;68.54;101186.94;5131579;27;1203;-68
2021/05/08 06:52:14;;;;;;;;;;;;;;;21.05;68.35;101189.59;5131468;27;706;-67
2021/05/08 06:54:59;;;;;;;;;;;;;;;21.05;68.38;101196.69;5131379;27;1366;-67
2021/05/08 06:57:44;;;;;;;;;;;;;;;21.05;68.57;101197.53;5131539;27;655;-67
2021/05/08 07:00:29;;;;;;;;;;;;;;;21.05;68.44;101194.91;5131355;27;1367;-67
2021/05/08 07:03:14;;;;;;;;;;;;;;;21.06;68.20;101193.09;5131631;27;714;-68
2021/05/08 07:05:59;;;;;;;;;;;;;;;21.06;68.08;101193.09;5115579;27;1231;-69
2021/05/08 07:08:43;;;;;;;;;;;;;;;21.06;68.08;101182.50;5136368;27;1589;-68
2021/05/08 07:11:28;;;;;;;;;;;;;;;21.06;68.21;101187.81;5146209;27;1369;-67
2021/05/08 07:14:12;;;;;;;;;;;;;;;21.07;67.98;101190.34;5139577;27;698;-68
2021/05/08 07:16:57;;;;;;;;;;;;;;;21.08;68.19;101189.44;5131809;27;1382;-67
2021/05/08 07:19:42;;;;;;;;;;;;;;;21.18;68.42;101193.25;5130870;27;1267;-68
2021/05/08 07:22:27;;;;;;;;;;;;;;;21.17;68.24;101190.69;5135360;27;1893;-69
2021/05/08 07:25:13;;;;;;;;;;;;;;;21.14;68.39;101191.72;5150285;27;1370;-68
2021/05/08 07:28:08;;;;;;;;;;;;;;;21.13;68.79;101200.59;5151341;27;706;-69
2021/05/08 07:30:54;;;;;;;;;;;;;;;21.14;68.58;101199.69;5135872;27;1267;-70
2021/05/08 07:33:38;;;;;;;;;;;;;;;21.13;68.97;101200.59;5151445;27;671;-67
2021/05/08 07:36:24;;;;;;;;;;;;;;;21.15;68.83;101206.69;5151001;27;1375;-67
2021/05/08 07:39:09;;;;;;;;;;;;;;;21.19;69.19;101205.53;5151081;27;671;-68
2021/05/08 07:41:53;;;;;;;;;;;;;;;21.19;69.11;101199.38;5135349;27;2027;-66
2021/05/08 07:44:38;;;;;;;;;;;;;;;21.21;69.09;101194.88;5151144;27;1259;-68
2021/05/08 07:47:23;;;;;;;;;;;;;;;21.23;69.14;101200.91;5135618;27;1465;-69
2021/05/08 07:50:09;;;;;;;;;;;;;;;21.35;69.01;101197.53;5142760;27;1489;-65
2021/05/08 07:52:55;;;;;;;;;;;;;;;21.39;69.16;101196.41;5133479;27;711;-68
2021/05/08 07:55:40;;;;;;;;;;;;;;;21.28;66.12;101200.66;5115034;27;1385;-68
2021/05/08 07:58:24;;;;;;;;;;;;;;;21.21;67.34;101192.22;5129737;27;623;-68
2021/05/08 08:01:09;;;;;;;;;;;;;;;21.18;67.67;101195.91;5131183;27;1898;-68
2021/05/08 08:03:54;;;;;;;;;;;;;;;21.19;68.86;101199.38;5115229;27;675;-68
2021/05/08 08:06:39;;;;;;;;;;;;;;;21.19;68.91;101200.25;5115099;27;1401;-68
2021/05/08 08:09:23;;;;;;;;;;;;;;;21.17;68.79;101191.53;5130543;27;635;-68
2021/05/08 08:12:09;;;;;;;;;;;;;;;21.17;68.96;101196.84;5130233;27;745;-68
2021/05/08 08:14:54;;;;;;;;;;;;;;;21.17;68.94;101196.84;5130819;27;1262;-67
2021/05/08 08:17:39;;;;;;;;;;;;;;;21.17;69.08;101194.19;5130759;27;733;-67
2021/05/08 08:20:24;;;;;;;;;;;;;;;21.17;68.52;101195.97;5130659;27;1329;-67
2021/05/08 08:23:09;;;;;;;;;;;;;;;21.16;68.87;101195.13;5130507;27;1960;-67
2021/05/08 08:25:54;;;;;;;;;;;;;;;21.15;68.65;101188.16;5130861;27;1362;-67
2021/05/08 08:28:39;;;;;;;;;;;;;;;21.16;68.46;101195.13;5114903;27;691;-67
2021/05/08 08:31:24;;;;;;;;;;;;;;;21.16;68.52;101187.19;5130890;27;1390;-67
2021/05/08 08:34:08;;;;;;;;;;;;;;;21.15;68.33;101188.16;5130518;27;577;-67
2021/05/08 08:36:53;;;;;;;;;;;;;;;21.16;68.48;101189.81;5130187;27;1346;-67
2021/05/08 08:39:37;;;;;;;;;;;;;;;21.16;68.31;101187.19;5129845;27;611;-67
2021/05/08 08:42:23;;;;;;;;;;;;;;;21.16;68.28;101194.28;5130200;27;1906;-67
2021/05/08 08:45:08;;;;;;;;;;;;;;;21.16;68.22;101189.81;5129898;27;1248;-66
2021/05/08 08:47:54;;;;;;;;;;;;;;;21.15;68.05;101177.56;5130007;27;1157;-67
2021/05/08 08:50:39;;;;;;;;;;;;;;;21.16;68.24;101179.22;5129800;27;1330;-66
2021/05/08 08:53:24;;;;;;;;;;;;;;;21.16;68.10;101176.59;5129858;27;690;-67
2021/05/08 08:56:10;;;;;;;;;;;;;;;21.16;68.17;101179.22;5114227;27;1299;-69
2021/05/08 08:59:01;;;;;;;;;;;;;;;21.16;68.05;101173.06;5129570;27;671;-66
2021/05/08 09:01:48;;;;;;;;;;;;;;;21.16;68.26;101176.59;5129817;27;1982;-66
2021/05/08 09:04:33;;;;;;;;;;;;;;;21.15;68.03;101182.84;5129823;27;718;-67
2021/05/08 09:07:18;;;;;;;;;;;;;;;21.10;68.27;101166.34;5129686;27;643;-67
2021/05/08 09:10:05;;;;;;;;;;;;;;;21.16;67.85;101171.28;5129830;27;1212;-68
2021/05/08 09:12:51;;;;;;;;;;;;;;;21.15;68.03;101177.56;5129516;27;726;-66
2021/05/08 09:15:37;;;;;;;;;;;;;;;21.16;67.78;101181.88;5129788;27;1263;-68
2021/05/08 09:18:36;;;;;;;;;;;;;;;21.15;67.97;101172.25;5114254;28;666;-67
2021/05/08 09:21:28;;;;;;;;;;;;;;;21.16;67.76;101165.97;5129277;28;2043;-66
2021/05/08 09:24:13;;;;;;;;;;;;;;;21.16;68.08;101173.94;5114031;28;655;-67
2021/05/08 09:27:00;;;;;;;;;;;;;;;21.15;67.87;101166.94;5129849;28;1373;-67
2021/05/08 09:29:44;;;;;;;;;;;;;;;21.15;67.94;101166.94;5113931;28;1299;-67
2021/05/08 09:32:35;;;;;;;;;;;;;;;21.15;67.92;101166.94;5129310;28;627;-68
2021/05/08 09:35:20;;;;;;;;;;;;;;;21.16;67.66;101162.47;5129411;28;1283;-67
2021/05/08 09:38:09;;;;;;;;;;;;;;;21.15;67.65;101164.31;5113762;28;625;-67
2021/05/08 09:40:57;;;;;;;;;;;;;;;21.15;67.76;101161.66;5129715;28;1370;-67
2021/05/08 09:43:43;;;;;;;;;;;;;;;21.14;67.60;101159.94;5129268;28;647;-68
2021/05/08 09:46:29;;;;;;;;;;;;;;;21.15;67.52;101156.34;5129635;28;1330;-67
2021/05/08 09:49:15;;;;;;;;;;;;;;;21.15;67.69;101153.72;5129650;28;1254;-67
2021/05/08 09:52:00;;;;;;;;;;;;;;;21.16;67.33;101157.19;5117810;27;1346;-68
2021/05/08 09:55:00;;;;;;;;;;;;;;;21.16;67.63;101163.34;5133307;27;1303;-68
2021/05/08 09:58:07;;;;;;;;;;;;;;;21.16;67.46;101151.88;5133456;27;690;-68
2021/05/08 10:00:55;;;;;;;;;;;;;;;21.15;67.84;101156.34;5133224;27;1278;-68
2021/05/08 10:03:40;;;;;;;;;;;;;;;21.15;67.41;101143.09;5133193;27;647;-69
2021/05/08 10:06:34;;;;;;;;;;;;;;;21.16;67.34;101155.38;5133546;27;1234;-69
2021/05/08 10:09:18;;;;;;;;;;;;;;;21.16;67.39;101158.03;5133165;27;666;-69
2021/05/08 10:12:07;;;;;;;;;;;;;;;21.15;67.27;101151.06;5133472;27;1223;-68
2021/05/08 10:14:53;;;;;;;;;;;;;;;21.15;67.40;101156.34;5133353;27;1264;-68
2021/05/08 10:17:38;;;;;;;;;;;;;;;21.16;67.37;101157.19;5132946;27;609;-69
2021/05/08 10:20:24;;;;;;;;;;;;;;;21.16;67.17;101159.84;5132553;27;1271;-68
2021/05/08 10:23:13;;;;;;;;;;;;;;;21.15;67.40;101148.41;5132659;27;1949;-69
2021/05/08 10:26:01;;;;;;;;;;;;;;;21.16;67.36;101151.88;5132852;27;1349;-68
2021/05/08 10:28:47;;;;;;;;;;;;;;;21.15;67.38;101139.59;5117054;27;651;-68
2021/05/08 10:31:33;;;;;;;;;;;;;;;21.15;67.24;101140.47;5117057;27;1379;-69
2021/05/08 10:34:29;;;;;;;;;;;;;;;21.15;67.26;101135.16;5132752;27;655;-67
2021/05/08 10:37:14;;;;;;;;;;;;;;;21.16;67.17;101138.63;5132445;27;690;-67
2021/05/08 10:40:09;;;;;;;;;;;;;;;21.16;67.20;101130.69;5132331;27;1267;-67
2021/05/08 10:42:54;;;;;;;;;;;;;;;21.14;67.17;101130.81;5132658;27;1886;-67
2021/05/08 10:45:39;;;;;;;;;;;;;;;21.16;67.17;101125.38;5132776;27;1227;-67
2021/05/08 10:48:24;;;;;;;;;;;;;;;21.15;67.14;101129.00;5132261;27;1499;-67
2021/05/08 10:51:08;;;;;;;;;;;;;;;21.15;66.98;101137.81;5132355;27;1274;-67
2021/05/08 10:53:53;;;;;;;;;;;;;;;21.16;67.24;101133.34;5132204;27;651;-67
2021/05/08 10:56:40;;;;;;;;;;;;;;;21.16;67.15;101123.59;5132488;27;1283;-68
2021/05/08 10:59:24;;;;;;;;;;;;;;;21.17;67.06;101124.47;5132350;27;642;-68
2021/05/08 11:02:09;;;;;;;;;;;;;;;21.16;67.23;101120.09;5130975;27;1959;-68
2021/05/08 11:05:12;;;;;;;;;;;;;;;21.16;66.97;101120.09;5131423;27;1370;-67
2021/05/08 11:07:57;;;;;;;;;;;;;;;21.16;66.83;101120.94;5132083;27;691;-68
2021/05/08 11:10:44;;;;;;;;;;;;;;;21.17;66.83;101121.81;5132080;27;1283;-67
2021/05/08 11:13:41;;;;;;;;;;;;;;;21.16;66.92;101120.94;5131776;27;647;-67
2021/05/08 11:16:26;;;;;;;;;;;;;;;21.17;66.70;101122.66;5131725;27;1263;-67
2021/05/08 11:19:22;;;;;;;;;;;;;;;21.18;66.98;101112.94;5131626;27;730;-67
2021/05/08 11:22:07;;;;;;;;;;;;;;;21.17;66.71;101112.06;5115664;27;1965;-68
2021/05/08 11:24:52;;;;;;;;;;;;;;;21.18;66.72;101112.94;5115806;27;1386;-67
2021/05/08 11:27:37;;;;;;;;;;;;;;;21.17;66.55;101106.78;5131632;27;666;-67
2021/05/08 11:30:22;;;;;;;;;;;;;;;21.18;66.58;101103.19;5131400;27;1270;-67
2021/05/08 11:33:19;;;;;;;;;;;;;;;21.18;66.53;101108.47;5131345;27;683;-68
2021/05/08 11:36:04;;;;;;;;;;;;;;;21.18;66.75;101097.88;5115536;27;1251;-67
2021/05/08 11:38:48;;;;;;;;;;;;;;;21.18;66.57;101104.97;5131495;27;671;-68
2021/05/08 11:41:40;;;;;;;;;;;;;;;21.18;66.51;101103.19;5131526;27;1990;-67
2021/05/08 11:44:29;;;;;;;;;;;;;;;21.19;66.52;101093.41;5131242;27;718;-67
2021/05/08 11:47:36;;;;;;;;;;;;;;;21.18;66.52;101103.19;5131145;27;642;-67
2021/05/08 11:50:21;;;;;;;;;;;;;;;21.20;66.44;101100.44;5115690;27;1219;-67
2021/05/08 11:53:14;;;;;;;;;;;;;;;21.20;66.57;101085.38;5131139;27;731;-68
2021/05/08 11:55:59;;;;;;;;;;;;;;;21.19;66.43;101083.66;5131731;27;1216;-67
2021/05/08 11:58:50;;;;;;;;;;;;;;;21.19;66.57;101083.66;5115586;27;676;-68
2021/05/08 12:01:35;;;;;;;;;;;;;;;21.20;66.46;101077.44;5130385;27;1898;-67
2021/05/08 12:04:22;;;;;;;;;;;;;;;21.20;66.27;101069.50;5131058;27;744;-67
2021/05/08 12:07:07;;;;;;;;;;;;;;;21.21;66.29;101076.50;5131078;27;674;-66
2021/05/08 12:09:52;;;;;;;;;;;;;;;21.21;66.57;101075.66;5130729;27;1291;-67
2021/05/08 12:12:53;;;;;;;;;;;;;;;21.21;66.28;101070.34;5131085;27;607;-67
2021/05/08 12:15:41;;;;;;;;;;;;;;;21.22;66.25;101062.28;5115026;27;1275;-67
2021/05/08 12:18:26;;;;;;;;;;;;;;;21.23;66.28;101064.00;5130620;27;635;-67
2021/05/08 12:21:12;;;;;;;;;;;;;;;21.23;66.50;101052.56;5130072;27;1274;-67
2021/05/08 12:23:57;;;;;;;;;;;;;;;21.24;66.06;101060.41;5130748;27;712;-67
2021/05/08 12:26:51;;;;;;;;;;;;;;;21.26;65.97;101052.34;5130877;27;1537;-67
2021/05/08 12:29:55;;;;;;;;;;;;;;;21.30;66.16;101059.19;5145728;27;643;-66
2021/05/08 12:32:50;;;;;;;;;;;;;;;21.32;65.92;101061.72;5133117;27;847;-66
2021/05/08 12:35:35;;;;;;;;;;;;;;;21.42;65.49;101057.53;5130294;27;1363;-68
2021/05/08 12:38:20;;;;;;;;;;;;;;;21.44;65.54;101059.16;5130397;27;658;-70
2021/05/08 12:41:35;;;;;;;;;;;;;;;21.45;65.43;101042.31;5121208;27;1350;-71
2021/05/08 12:44:30;;;;;;;;;;;;;;;21.50;65.50;101058.75;5137155;27;1002;-68
2021/05/08 12:47:23;;;;;;;;;;;;;;;21.52;65.94;101053.38;5129824;27;658;-67
2021/05/08 12:50:11;;;;;;;;;;;;;;;21.56;65.50;101045.13;5129478;27;1291;-64
2021/05/08 12:53:00;;;;;;;;;;;;;;;21.72;64.78;101037.03;5129976;27;663;-65
2021/05/08 12:55:59;;;;;;;;;;;;;;;21.74;65.63;101037.78;5130496;27;1216;-65
2021/05/08 12:58:44;;;;;;;;;;;;;;;21.75;65.59;101034.19;5130317;27;726;-68
2021/05/08 13:01:30;;;;;;;;;;;;;;;21.76;65.10;101031.41;5129888;27;1898;-68
2021/05/08 13:04:18;;;;;;;;;;;;;;;21.79;65.51;101020.59;5129913;27;675;-65
2021/05/08 13:07:39;;;;;;;;;;;;;;;21.82;65.25;101022.22;5129916;27;1307;-66
2021/05/08 13:10:28;;;;;;;;;;;;;;;21.93;65.38;101017.09;5025749;28;1391;-69
2021/05/08 13:13:18;;;;;;;;;;;;;;;21.95;65.94;101015.19;5130647;27;1275;-67
2021/05/08 13:16:03;;;;;;;;;;;;;;;21.91;64.99;101011.06;5137114;27;1436;-72
2021/05/08 13:18:48;;;;;;;;;;;;;;;21.85;66.38;101007.91;5139241;27;1476;-71
2021/05/08 13:21:33;;;;;;;;;;;;;;;21.88;66.29;101002.41;5138496;27;1897;-69
2021/05/08 13:24:24;;;;;;;;;;;;;;;21.86;65.68;100999.84;5122756;27;1039;-67
2021/05/08 13:27:09;;;;;;;;;;;;;;;21.78;66.15;100997.72;5122807;27;1161;-67
2021/05/08 13:29:54;;;;;;;;;;;;;;;21.74;66.30;100996.19;5138832;27;1247;-70
2021/05/08 13:32:39;;;;;;;;;;;;;;;21.71;65.92;100995.53;5122700;27;1047;-70
2021/05/08 13:35:25;;;;;;;;;;;;;;;21.69;66.65;100998.31;5136549;27;1489;-71
2021/05/08 13:38:10;;;;;;;;;;;;;;;21.70;66.33;100999.16;5139249;27;1058;-74
2021/05/08 13:40:54;;;;;;;;;;;;;;;21.70;65.93;101000.00;5131435;27;1421;-71
2021/05/08 13:43:39;;;;;;;;;;;;;;;21.72;65.87;101002.56;5137037;27;1909;-70
2021/05/08 13:46:24;;;;;;;;;;;;;;;21.73;66.35;100998.97;5138030;27;1425;-71
2021/05/08 13:49:09;;;;;;;;;;;;;;;21.69;65.74;100989.50;5138820;27;1183;-72
2021/05/08 13:51:53;;;;;;;;;;;;;;;21.66;65.72;100982.59;5124004;27;1449;-73
2021/05/08 13:54:38;;;;;;;;;;;;;;;21.65;66.20;100985.34;5137578;27;1251;-71
2021/05/08 13:57:26;;;;;;;;;;;;;;;21.64;66.07;100981.84;5138527;27;1306;-70
2021/05/08 14:00:12;;;;;;;;;;;;;;;21.62;65.98;100978.44;5125263;27;1389;-69
2021/05/08 14:02:56;;;;;;;;;;;;;;;21.63;66.25;100976.66;5137335;27;1959;-71
2021/05/08 14:05:42;;;;;;;;;;;;;;;21.63;66.69;100977.50;5122217;27;1311;-69
2021/05/08 14:08:27;;;;;;;;;;;;;;;21.63;66.55;100966.91;5123046;27;1062;-72
2021/05/08 14:11:13;;;;;;;;;;;;;;;21.64;66.73;100967.75;5138936;27;1322;-70
2021/05/08 14:13:57;;;;;;;;;;;;;;;21.63;66.69;100960.75;5137575;27;979;-70
2021/05/08 14:16:42;;;;;;;;;;;;;;;21.61;66.69;100958.19;5138573;27;1366;-70
2021/05/08 14:19:27;;;;;;;;;;;;;;;21.62;66.55;100967.00;5139400;27;1108;-71
2021/05/08 14:22:11;;;;;;;;;;;;;;;21.66;66.97;100960.53;5138148;27;1913;-71
2021/05/08 14:24:56;;;;;;;;;;;;;;;21.64;66.39;100954.50;5132589;27;1399;-65
2021/05/08 14:27:41;;;;;;;;;;;;;;;21.63;66.96;100961.59;5138804;27;1112;-67
2021/05/08 14:30:25;;;;;;;;;;;;;;;21.62;66.81;100953.72;5139269;27;1353;-65